createdAt,value
2022-12-22T00:01:16.291Z,93871.75
2022-12-22T00:06:37.977Z,93879.19
2022-12-22T00:11:59.752Z,93864.97
2022-12-22T00:17:22.074Z,93865.38
2022-12-22T00:22:44.855Z,93850.81
2022-12-22T00:28:07.564Z,93849.19
2022-12-22T00:33:31.691Z,93854.59
2022-12-22T00:38:53.313Z,93845.78
2022-12-22T00:44:16.327Z,93857.47
2022-12-22T00:49:38.571Z,93865.59
2022-12-22T00:55:00.282Z,93866.41
2022-12-22T01:00:23.781Z,93866.75
2022-12-22T01:05:46.231Z,93865.88
2022-12-22T01:11:08.669Z,93872.59
2022-12-22T01:16:31.878Z,93859.47
2022-12-22T01:21:55.179Z,93851.63
2022-12-22T01:27:17.538Z,93865.84
2022-12-22T01:32:40.323Z,93856.38
2022-12-22T01:38:02.781Z,93864.16
2022-12-22T01:43:38.583Z,93861.22
2022-12-22T01:49:00.296Z,93849.88
2022-12-22T01:54:22.147Z,93825.63
2022-12-22T01:59:44.545Z,93824.63
2022-12-22T02:05:07.448Z,93836.69
2022-12-22T02:11:03.518Z,93837.09
2022-12-22T02:16:45.417Z,93824.97
2022-12-22T02:22:29.236Z,93773.50
2022-12-22T02:27:55.647Z,93819.00
2022-12-22T02:33:17.227Z,93828.16
2022-12-22T02:38:46.780Z,93805.81
2022-12-22T02:44:27.843Z,93810.31
2022-12-22T02:50:14.588Z,93810.41
2022-12-22T02:55:37.849Z,93790.81
2022-12-22T03:01:00.729Z,93804.47
2022-12-22T03:06:23.234Z,93801.00
2022-12-22T03:11:45.803Z,93798.97
2022-12-22T03:17:07.996Z,93811.59
2022-12-22T03:22:29.630Z,93817.97
2022-12-22T03:27:33.490Z,93814.56
2022-12-22T03:32:36.654Z,93804.31
2022-12-22T03:37:40.700Z,93802.69
2022-12-22T03:43:03.300Z,93805.41
2022-12-22T03:48:06.631Z,93810.59
2022-12-22T03:53:10.404Z,93796.56
2022-12-22T03:58:13.552Z,93808.66
2022-12-22T04:03:17.713Z,93813.50
2022-12-22T04:08:21.608Z,93809.75
2022-12-22T04:13:24.672Z,93812.03
2022-12-22T04:18:28.249Z,93813.28
2022-12-22T04:23:31.938Z,93828.31
2022-12-22T04:28:35.616Z,93818.34
2022-12-22T04:33:38.800Z,93837.69
2022-12-22T04:38:41.987Z,93837.69
2022-12-22T04:43:45.003Z,93839.13
2022-12-22T04:48:48.194Z,93845.66
2022-12-22T04:53:51.283Z,93803.69
2022-12-22T04:58:54.441Z,93840.41
2022-12-22T05:03:58.114Z,93852.41
2022-12-22T05:09:01.741Z,93842.91
2022-12-22T05:14:07.330Z,93849.81
2022-12-22T05:19:11.251Z,93857.50
2022-12-22T05:24:14.358Z,93848.94
2022-12-22T05:29:18.109Z,93841.97
2022-12-22T05:34:21.411Z,93855.25
2022-12-22T05:39:24.569Z,93856.00
2022-12-22T05:44:28.462Z,93863.75
2022-12-22T05:49:31.535Z,93860.75
2022-12-22T05:54:35.281Z,93866.16
2022-12-22T05:59:38.692Z,93879.41
2022-12-22T06:04:42.914Z,93869.25
2022-12-22T06:09:46.270Z,93886.84
2022-12-22T06:14:49.386Z,93890.53
2022-12-22T06:19:53.511Z,93898.66
2022-12-22T06:24:56.910Z,93903.53
2022-12-22T06:30:00.321Z,93896.03
2022-12-22T06:35:04.316Z,93914.13
2022-12-22T06:40:08.828Z,93920.00
2022-12-22T06:45:12.026Z,93918.25
2022-12-22T06:50:15.940Z,93918.41
2022-12-22T06:55:20.171Z,93945.81
2022-12-22T07:00:23.875Z,93937.41
2022-12-22T07:05:27.727Z,93948.09
2022-12-22T07:10:49.455Z,93945.59
2022-12-22T07:16:00.004Z,93944.03
2022-12-22T07:21:06.942Z,93947.16
2022-12-22T07:26:11.020Z,93939.84
2022-12-22T07:31:17.663Z,93931.16
2022-12-22T07:36:21.465Z,93919.31
2022-12-22T07:41:43.710Z,93908.94
2022-12-22T07:46:48.246Z,93927.50
2022-12-22T07:51:52.061Z,93917.97
2022-12-22T07:56:55.508Z,93924.78
2022-12-22T08:01:58.676Z,93925.00
2022-12-22T08:07:02.479Z,93930.31
2022-12-22T08:12:05.965Z,93920.41
2022-12-22T08:17:09.449Z,93912.19
2022-12-22T08:22:13.125Z,93914.59
2022-12-22T08:27:25.688Z,93912.69
2022-12-22T08:32:30.116Z,93915.16
2022-12-22T08:37:41.583Z,93911.41
2022-12-22T08:42:46.272Z,93915.53
2022-12-22T08:47:49.354Z,93914.34
2022-12-22T08:52:53.496Z,93910.84
2022-12-22T08:57:56.618Z,93903.41
2022-12-22T09:03:00.440Z,93905.06
2022-12-22T09:08:04.464Z,93895.28
2022-12-22T09:13:08.013Z,93904.28
2022-12-22T09:18:12.000Z,93891.50
2022-12-22T09:23:15.071Z,93892.00
2022-12-22T09:28:18.967Z,93885.41
2022-12-22T09:33:22.718Z,93883.09
2022-12-22T09:38:29.967Z,93887.09
2022-12-22T09:43:33.168Z,93893.34
2022-12-22T09:48:38.101Z,93880.56
2022-12-22T09:53:43.053Z,93882.09
2022-12-22T09:58:47.500Z,93871.19
2022-12-22T10:04:01.361Z,93874.25
2022-12-22T10:09:49.121Z,93865.16
2022-12-22T10:14:51.723Z,93858.63
2022-12-22T10:20:22.800Z,93859.81
2022-12-22T10:25:52.426Z,93852.00
2022-12-22T10:31:23.169Z,93843.09
2022-12-22T10:36:32.610Z,93844.69
2022-12-22T10:41:44.209Z,93821.97
2022-12-22T10:46:51.164Z,93832.59
2022-12-22T10:52:15.480Z,93819.38
2022-12-22T10:57:19.877Z,93823.38
2022-12-22T11:02:38.805Z,93830.03
2022-12-22T11:07:45.170Z,93819.19
2022-12-22T11:13:02.588Z,93811.38
2022-12-22T11:18:47.879Z,93805.84
2022-12-22T11:24:08.926Z,93798.50
2022-12-22T11:29:37.467Z,93782.50
2022-12-22T11:34:44.611Z,93786.19
2022-12-22T11:39:59.699Z,93788.44
2022-12-22T11:45:43.892Z,93780.34
2022-12-22T11:50:59.117Z,93774.94
2022-12-22T11:56:23.155Z,93764.66
2022-12-22T12:01:38.371Z,93771.69
2022-12-22T12:06:59.586Z,93774.22
2022-12-22T12:12:15.813Z,93760.63
2022-12-22T12:17:42.133Z,93747.19
2022-12-22T12:23:07.669Z,93748.88
2022-12-22T12:28:17.749Z,93753.63
2022-12-22T12:33:47.751Z,93742.22
2022-12-22T12:39:08.057Z,93750.22
2022-12-22T12:44:15.399Z,93737.25
2022-12-22T12:49:37.182Z,93739.34
2022-12-22T12:54:47.802Z,93736.00
2022-12-22T12:59:54.001Z,93724.94
2022-12-22T13:05:18.082Z,93725.78
2022-12-22T13:10:28.067Z,93729.03
2022-12-22T13:15:38.292Z,93736.50
2022-12-22T13:20:42.579Z,93721.31
2022-12-22T13:25:54.203Z,93713.25
2022-12-22T13:31:06.721Z,93734.59
2022-12-22T13:36:19.990Z,93725.50
2022-12-22T13:41:27.770Z,93735.50
2022-12-22T13:46:35.977Z,93725.88
2022-12-22T13:51:40.218Z,93735.63
2022-12-22T13:57:05.015Z,93740.72
2022-12-22T14:02:11.599Z,93740.56
2022-12-22T14:07:17.799Z,93741.91
2022-12-22T14:12:24.127Z,93743.25
2022-12-22T14:17:37.900Z,93752.06
2022-12-22T14:22:46.221Z,93754.81
2022-12-22T14:27:56.434Z,93758.47
2022-12-22T14:33:16.593Z,93760.56
2022-12-22T14:38:26.954Z,93746.47
2022-12-22T14:43:32.436Z,93747.63
2022-12-22T14:48:40.835Z,93753.53
2022-12-22T14:53:46.122Z,93751.19
2022-12-22T14:58:50.136Z,93760.22
2022-12-22T15:04:05.124Z,93763.78
2022-12-22T15:10:03.573Z,93761.41
2022-12-22T15:14:50.082Z,93765.72
2022-12-22T15:19:57.999Z,93767.63
2022-12-22T15:25:02.159Z,93767.19
2022-12-22T15:30:06.539Z,93759.69
2022-12-22T15:35:26.609Z,93779.13
2022-12-22T15:40:30.828Z,93748.66
2022-12-22T15:45:36.569Z,93783.47
2022-12-22T15:50:45.227Z,93790.28
2022-12-22T15:55:51.578Z,93800.13
2022-12-22T16:00:56.144Z,93803.94
2022-12-22T16:06:01.244Z,93797.75
2022-12-22T16:11:08.158Z,93791.00
2022-12-22T16:16:12.449Z,93805.19
2022-12-22T16:21:20.296Z,93804.06
2022-12-22T16:26:23.712Z,93803.00
2022-12-22T16:31:27.636Z,93801.19
2022-12-22T16:36:30.883Z,93807.81
2022-12-22T16:41:35.049Z,93814.56
2022-12-22T16:46:42.354Z,93827.41
2022-12-22T16:51:50.172Z,93827.75
2022-12-22T16:56:54.185Z,93825.31
2022-12-22T17:01:58.531Z,93841.59
2022-12-22T17:07:03.497Z,93817.72
2022-12-22T17:12:07.500Z,93837.72
2022-12-22T17:17:21.973Z,93842.25
2022-12-22T17:22:30.230Z,93844.50
2022-12-22T17:27:35.158Z,93850.63
2022-12-22T17:32:38.348Z,93858.88
2022-12-22T17:37:41.808Z,93865.53
2022-12-22T17:42:44.983Z,93854.94
2022-12-22T17:47:48.436Z,93857.44
2022-12-22T17:52:52.067Z,93854.41
2022-12-22T17:57:55.291Z,93838.66
2022-12-22T18:02:59.278Z,93842.47
2022-12-22T18:08:02.540Z,93849.00
2022-12-22T18:13:28.702Z,93841.78
2022-12-22T18:18:32.802Z,93845.63
2022-12-22T18:23:37.297Z,93845.59
2022-12-22T18:28:40.475Z,93846.22
2022-12-22T18:33:43.953Z,93836.50
2022-12-22T18:38:49.517Z,93818.59
2022-12-22T18:43:53.362Z,93830.06
2022-12-22T18:49:03.427Z,93833.13
2022-12-22T18:54:37.257Z,93831.19
2022-12-22T18:59:40.856Z,93836.00
2022-12-22T19:04:44.866Z,93844.56
2022-12-22T19:09:49.898Z,93835.34
2022-12-22T19:14:59.154Z,93844.53
2022-12-22T19:20:02.650Z,93824.81
2022-12-22T19:25:07.853Z,93839.31
2022-12-22T19:30:18.437Z,93846.63
2022-12-22T19:35:25.101Z,93821.25
2022-12-22T19:40:31.524Z,93853.66
2022-12-22T19:45:36.010Z,93858.00
2022-12-22T19:50:39.557Z,93830.31
2022-12-22T19:55:55.777Z,93840.94
2022-12-22T20:00:59.919Z,93858.28
2022-12-22T20:06:05.056Z,93838.16
2022-12-22T20:11:15.288Z,93857.38
2022-12-22T20:16:18.823Z,93873.56
2022-12-22T20:21:30.515Z,93865.78
2022-12-22T20:26:34.759Z,93856.06
2022-12-22T20:31:38.488Z,93846.09
2022-12-22T20:36:43.452Z,93872.91
2022-12-22T20:41:52.670Z,93861.28
2022-12-22T20:46:56.564Z,93853.03
2022-12-22T20:52:00.113Z,93867.94
2022-12-22T20:57:03.517Z,93859.81
2022-12-22T21:02:25.512Z,93858.66
2022-12-22T21:07:28.754Z,93861.91
2022-12-22T21:12:32.855Z,93870.78
2022-12-22T21:17:36.518Z,93866.38
2022-12-22T21:22:39.528Z,93869.53
2022-12-22T21:27:45.930Z,93871.75
2022-12-22T21:32:50.025Z,93874.50
2022-12-22T21:37:54.703Z,93863.69
2022-12-22T21:42:58.381Z,93860.63
2022-12-22T21:48:02.566Z,93862.53
2022-12-22T21:53:05.709Z,93867.50
2022-12-22T21:58:12.222Z,93870.22
2022-12-22T22:03:16.138Z,93852.19
2022-12-22T22:08:21.403Z,93840.56
2022-12-22T22:13:24.853Z,93855.69
2022-12-22T22:18:28.132Z,93839.31
2022-12-22T22:23:31.188Z,93848.91
2022-12-22T22:28:35.416Z,93835.25
2022-12-22T22:33:39.119Z,93818.63
2022-12-22T22:38:42.263Z,93811.44
2022-12-22T22:43:46.952Z,93811.22
2022-12-22T22:48:50.859Z,93818.84
2022-12-22T22:53:54.310Z,93836.75
2022-12-22T22:58:59.899Z,93832.84
2022-12-22T23:04:03.446Z,93810.19
2022-12-22T23:09:06.722Z,93805.28
2022-12-22T23:14:10.266Z,93802.75
2022-12-22T23:19:14.865Z,93804.84
2022-12-22T23:24:17.973Z,93803.91
2022-12-22T23:29:21.151Z,93797.56
2022-12-22T23:34:25.478Z,93798.66
2022-12-22T23:39:28.673Z,93800.56
2022-12-22T23:44:31.747Z,93753.84
2022-12-22T23:49:34.827Z,93790.13
2022-12-22T23:54:37.923Z,93793.63
2022-12-22T23:59:41.593Z,93800.72
